RJAA METAR and TAF | Updated Today

RJAA METAR

Narita International Airport

Observation time: 29 min. ago

RJAA 052000Z AUTO 30003KT 270V330 9999 NCD M01/M02 Q1020 NOSIG RMK A3013

Need help? Read our tutorial on how to read METARs or read the parsed version below.

Narita International Airport (RJAA) METAR

  • Weather conditions on Sun, 05 Feb 2023 20:00:00 +0000 (29 min. ago):
  • Present conditions: Dry
  • Clouds: Nil cloud detected
  • Visibility: Greater than 10 km
  • Wind: 300 degrees at 3 knots
  • Temperature: -1 celsius
  • Dew point: -2 celsius
  • Pressure: 1020 millibars
  • Remarks: A3013


Useful to know...

RJAA TAF

Narita International Airport

TAF RJAA 051708Z 0518/0700 32008KT 9999 FEW030
Observation time: 3:21 hr. ago
Need help? Read our tutorial on how to read TAFs or read the parsed version below.

Parsed version of TAF for Narita International Airport (RJAA)

  • From 05 February at 18:00 UTC, to day 07 of the month at 00:00 UTC
  • Clouds: A few at 914 meters
  • Visibility: Greater than 10 km
  • Wind: 320 degrees at 8